Date,TemperatureHighF,TemperatureAvgF,TemperatureLowF,DewpointHighF,DewpointAvgF,DewpointLowF,HumidityHigh,HumidityAvg,HumidityLow,PressureMaxIn,PressureMinIn,WindSpeedMaxMPH,WindSpeedAvgMPH,GustSpeedMaxMPH,PrecipitationSumIn
2013-1-1,80.0,65.8,57.0,59.0,53.9,48.0,93,69,35,0.00,40.00,19,9,33,0.00
2013-1-2,75.0,64.7,56.0,58.0,53.3,45.0,92,68,44,0.00,40.00,17,8,27,0.00
2013-1-3,77.0,65.4,57.0,59.0,52.5,41.0,91,66,41,0.00,40.00,13,7,28,0.00
2013-1-4,80.0,67.8,57.0,60.0,51.4,42.0,98,58,37,0.00,40.00,14,6,29,0.00
2013-1-5,75.0,65.0,57.0,63.0,54.7,40.0,99,72,41,0.00,40.00,13,6,29,0.00
2013-1-6,76.0,63.7,55.0,61.0,54.5,41.0,99,74,46,0.00,40.00,13,5,28,0.00
2013-1-7,76.0,62.5,55.0,62.0,54.5,37.0,98,77,45,0.00,40.00,11,4,19,0.00
2013-1-8,74.0,63.0,54.0,59.0,52.3,41.0,95,70,47,0.00,40.00,16,6,30,0.00
2013-1-9,76.0,63.4,55.0,63.0,55.7,50.0,99,78,47,0.00,40.00,7,4,19,0.00
2013-1-10,73.0,62.5,54.0,65.0,55.9,47.0,99,81,53,0.00,40.00,10,5,16,0.02
2013-1-11,75.0,63.0,54.0,63.0,51.5,42.0,89,68,47,0.00,40.00,10,6,21,0.04
2013-1-12,77.0,63.8,54.0,62.0,53.2,44.0,94,71,39,0.00,40.00,11,6,15,0.01
2013-1-13,78.0,65.1,56.0,64.0,55.0,48.0,90,71,48,0.00,40.00,7,5,15,0.00
2013-1-14,78.0,65.8,57.0,64.0,56.3,47.0,93,73,46,0.00,40.00,10,4,17,0.00
2013-1-15,71.0,64.5,61.0,66.0,61.8,57.0,99,91,68,0.00,40.00,9,3,14,0.28
2013-1-16,70.0,62.5,57.0,66.0,59.8,52.0,99,91,75,0.00,40.00,7,2,11,0.16
2013-1-17,69.0,60.2,53.0,61.0,55.1,50.0,99,85,62,0.00,40.00,7,4,13,0.01
2013-1-18,72.0,61.3,51.0,61.0,52.6,46.0,99,76,45,0.00,40.00,8,5,16,0.00
2013-1-19,76.0,61.9,52.0,50.0,38.1,16.0,82,47,17,0.00,40.00,15,8,25,0.00
2013-1-20,72.0,62.5,52.0,55.0,34.8,14.0,94,41,15,0.00,40.00,17,9,26,0.00
2013-1-21,74.0,61.5,52.0,57.0,46.7,33.0,99,59,45,0.00,40.00,24,8,36,0.00
2013-1-22,75.0,61.8,51.0,57.0,50.9,44.0,99,70,41,0.00,40.00,17,6,27,0.00
2013-1-23,72.0,60.9,51.0,62.0,54.5,46.0,98,81,50,0.00,40.00,8,5,17,0.00
2013-1-24,71.0,61.4,54.0,62.0,55.5,51.0,99,82,51,0.00,40.00,10,5,18,0.00
2013-1-25,72.0,62.6,53.0,62.0,55.4,48.0,95,79,58,0.00,40.00,8,4,15,0.00
2013-1-26,71.0,62.0,53.0,59.0,51.2,38.0,95,69,43,0.00,40.00,9,5,16,0.00
2013-1-27,74.0,62.4,53.0,61.0,53.5,44.0,99,75,47,0.00,40.00,10,6,15,0.00
2013-1-28,72.0,62.9,55.0,61.0,54.5,45.0,96,76,54,0.00,40.00,11,4,15,0.00
2013-1-29,72.0,62.6,56.0,63.0,59.1,54.0,99,89,65,0.00,40.00,6,4,11,0.43
2013-1-30,72.0,64.3,59.0,68.0,61.9,59.0,99,92,71,0.00,40.00,7,2,13,0.70
2013-1-31,74.0,63.9,55.0,65.0,58.4,52.0,97,83,61,0.00,40.00,12,6,19,0.01
2013-2-1,79.0,65.6,56.0,60.0,51.2,42.0,99,64,29,0.00,40.00,19,8,32,0.00
2013-2-2,76.0,64.3,56.0,58.0,49.9,33.0,99,62,36,0.00,40.00,13,6,28,0.00
2013-2-3,74.0,60.4,49.0,59.0,50.6,28.0,99,73,40,0.00,40.00,15,8,27,0.00
2013-2-4,74.0,60.4,51.0,55.0,51.3,46.0,93,73,51,0.00,40.00,24,8,40,0.00
2013-2-5,74.0,61.2,52.0,56.0,51.8,47.0,96,73,48,0.00,40.00,15,6,29,0.00
2013-2-6,74.0,63.2,54.0,57.0,52.2,47.0,91,69,46,0.00,40.00,11,5,32,0.00
2013-2-7,74.0,63.2,55.0,62.0,55.8,49.0,96,78,58,0.00,40.00,9,5,17,0.00
2013-2-8,75.0,64.0,56.0,65.0,54.5,39.0,99,73,47,0.00,40.00,10,5,19,0.00
2013-2-9,75.0,63.8,53.0,59.0,52.6,40.0,99,71,39,0.00,40.00,16,8,26,0.00
2013-2-10,80.0,66.1,55.0,58.0,53.2,45.0,99,66,38,0.00,40.00,17,7,31,0.00
2013-2-11,75.0,64.3,55.0,58.0,51.7,44.0,89,67,35,0.00,40.00,17,8,32,0.00
2013-2-12,71.0,60.5,52.0,56.0,50.3,42.0,97,71,44,0.00,40.00,19,9,29,0.00
2013-2-13,71.0,59.5,47.0,50.0,46.6,38.0,85,65,39,0.00,40.00,14,6,23,0.00
2013-2-14,73.0,60.8,51.0,53.0,47.9,33.0,87,64,45,0.00,40.00,16,8,26,0.00
2013-2-15,75.0,62.2,51.0,57.0,50.4,41.0,92,69,36,0.00,40.00,15,6,28,0.00
2013-2-16,74.0,63.3,55.0,55.0,51.1,45.0,94,67,44,0.00,40.00,22,9,37,0.00
2013-2-17,75.0,64.6,57.0,57.0,48.5,38.0,82,57,40,0.00,40.00,13,7,32,0.00
2013-2-18,74.0,63.4,54.0,60.0,52.5,42.0,99,70,46,0.00,40.00,17,6,34,0.00
2013-2-19,76.0,64.1,53.0,54.0,47.5,42.0,87,56,38,0.00,40.00,21,9,34,0.00
2013-2-20,78.0,64.1,55.0,59.0,49.8,44.0,99,63,38,0.00,40.00,24,10,41,0.00
2013-2-21,76.0,64.5,54.0,62.0,52.2,43.0,89,66,41,0.00,40.00,15,7,26,0.00
2013-2-22,74.0,65.2,58.0,58.0,51.4,45.0,83,61,51,0.00,40.00,12,6,23,0.00
2013-2-23,74.0,65.1,57.0,56.0,50.3,44.0,85,60,45,0.00,40.00,17,7,31,0.00
2013-2-24,81.0,64.7,53.0,55.0,51.9,46.0,89,65,38,0.00,40.00,14,6,34,0.00
2013-2-25,77.0,65.3,54.0,57.0,50.1,43.0,89,60,40,0.00,40.00,16,8,34,0.00
2013-2-26,78.0,64.8,57.0,54.0,48.9,42.0,84,58,38,0.00,40.00,25,9,38,0.00
2013-2-27,76.0,63.3,53.0,59.0,52.4,48.0,99,71,41,0.00,40.00,16,6,26,0.00
2013-2-28,74.0,61.6,51.0,58.0,50.3,41.0,97,68,46,0.00,40.00,13,7,27,0.00
2013-3-1,76.0,62.9,53.0,53.0,45.6,39.0,88,55,33,0.00,40.00,21,10,36,0.00
2013-3-2,76.0,61.8,52.0,56.0,51.3,45.0,89,71,41,0.00,40.00,18,8,29,0.00
2013-3-3,73.0,61.5,52.0,56.0,50.4,45.0,88,68,49,0.00,40.00,12,7,25,0.00
2013-3-4,75.0,62.5,50.0,52.0,46.6,35.0,83,58,38,0.00,40.00,14,7,25,0.00
2013-3-5,74.0,62.1,51.0,55.0,48.6,39.0,82,62,41,0.00,40.00,11,5,26,0.00
2013-3-6,74.0,62.6,55.0,60.0,51.9,44.0,89,69,43,0.00,40.00,10,5,17,0.00
2013-3-7,71.0,61.0,52.0,61.0,53.9,40.0,99,79,50,0.00,40.00,9,5,19,0.08
2013-3-8,70.0,61.0,51.0,61.0,55.1,48.0,99,83,48,0.00,40.00,9,4,16,0.09
2013-3-9,78.0,64.8,52.0,59.0,49.8,43.0,96,61,36,0.00,40.00,16,8,28,0.01
2013-3-10,80.0,67.6,58.0,65.0,50.1,-99.9,99,70,42,0.00,40.00,19,-39,30,0.00
2013-3-11,74.0,63.9,55.0,64.0,56.2,45.0,99,77,46,0.00,40.00,11,5,17,0.79
2013-3-12,68.0,62.8,59.0,65.0,61.0,58.0,99,94,83,0.00,40.00,7,2,12,0.79
2013-3-13,74.0,64.2,53.0,61.0,56.1,48.0,99,77,48,0.00,40.00,10,5,19,0.00
2013-3-14,71.0,62.6,54.0,65.0,58.6,53.0,100,88,59,0.00,40.00,10,4,19,0.00
2013-3-15,68.0,62.0,58.0,67.0,60.9,57.0,100,96,70,0.00,40.00,10,3,16,0.04
2013-3-16,62.0,59.0,56.0,62.0,59.0,51.0,100,99,99,0.00,40.00,8,3,14,0.13
2013-3-17,67.0,59.6,55.0,59.0,55.0,51.0,99,85,66,0.00,40.00,6,2,11,0.01
2013-3-18,73.0,62.0,53.0,56.0,48.6,43.0,99,67,35,0.00,40.00,8,4,24,0.00
2013-3-19,74.0,61.9,51.0,58.0,50.9,44.0,96,70,41,0.00,40.00,9,5,17,0.00
2013-3-20,75.0,63.5,54.0,62.0,54.2,46.0,93,74,41,0.00,40.00,10,5,15,0.00
2013-3-21,75.0,66.0,57.0,59.0,55.8,52.0,92,72,49,0.00,40.00,8,5,18,0.00
2013-3-22,72.0,64.6,57.0,64.0,57.2,46.0,100,78,54,0.00,40.00,7,5,15,0.00
2013-3-23,70.0,63.5,57.0,66.0,60.5,54.0,99,91,59,0.00,40.00,7,4,14,0.00
2013-3-24,69.0,63.3,59.0,68.0,61.0,56.0,100,92,64,0.00,40.00,8,3,13,0.01
2013-3-25,76.0,65.7,54.0,64.0,57.8,51.0,99,77,53,0.00,40.00,8,4,19,0.01
2013-3-26,75.0,65.4,56.0,62.0,58.8,55.0,99,81,54,0.00,40.00,10,5,18,0.00
2013-3-27,78.0,65.8,58.0,60.0,54.6,49.0,99,71,36,0.00,40.00,9,5,17,0.00
2013-3-28,77.0,68.5,57.0,58.0,54.1,50.0,99,63,39,0.00,40.00,19,12,33,0.08
2013-3-29,74.0,62.5,54.0,65.0,55.8,47.0,100,81,46,0.00,40.00,10,5,21,0.87
2013-3-30,68.0,61.7,57.0,64.0,58.5,-99.9,99,95,68,0.00,40.00,8,3,13,0.73
2013-3-31,71.0,62.5,55.0,60.0,56.6,52.0,99,83,52,0.00,40.00,10,4,18,0.01
2013-4-1,69.0,59.3,51.0,55.0,49.2,42.0,99,73,40,0.00,40.00,9,5,21,0.00
2013-4-2,71.0,59.2,50.0,55.0,50.2,45.0,99,76,42,0.00,40.00,10,5,17,0.00
2013-4-3,71.0,61.4,51.0,54.0,50.1,46.0,96,69,43,0.00,40.00,9,4,16,0.00
2013-4-4,75.0,64.0,53.0,54.0,49.0,45.0,88,61,41,0.00,40.00,11,6,17,0.00
2013-4-5,76.0,65.5,55.0,62.0,54.2,46.0,94,68,40,0.00,40.00,10,5,18,0.00
2013-4-6,79.0,67.3,55.0,64.0,58.5,53.0,99,76,48,0.00,40.00,7,4,18,0.00
2013-4-7,76.0,65.9,56.0,66.0,60.7,55.0,99,85,60,0.00,40.00,10,4,14,0.00
2013-4-8,74.0,64.3,56.0,64.0,58.0,51.0,99,82,47,0.00,40.00,10,5,18,0.00
2013-4-9,75.0,65.6,58.0,65.0,59.5,55.0,99,82,55,0.00,40.00,11,6,16,0.00
2013-4-10,79.0,68.2,57.0,63.0,55.6,43.0,99,66,42,0.00,40.00,11,5,22,0.00
2013-4-11,78.0,67.5,57.0,65.0,60.4,56.0,99,80,49,0.00,40.00,8,4,16,0.00
2013-4-12,75.0,65.7,57.0,66.0,59.8,52.0,99,82,53,0.00,40.00,9,5,15,0.00
2013-4-13,83.0,68.1,60.0,67.0,59.8,44.0,99,79,25,0.00,40.00,11,5,22,0.00
2013-4-14,76.0,66.5,58.0,66.0,58.8,54.0,100,78,50,0.00,40.00,9,5,16,0.00
2013-4-15,76.0,66.7,57.0,63.0,59.1,52.0,99,78,55,0.00,40.00,9,4,16,0.00
2013-4-16,76.0,67.2,59.0,67.0,61.6,55.0,99,84,54,0.00,40.00,10,4,17,0.00
2013-4-17,75.0,65.2,55.0,66.0,57.1,46.0,99,77,47,0.00,40.00,15,6,25,0.00
2013-4-18,77.0,64.9,56.0,66.0,57.6,50.0,99,80,45,0.00,40.00,10,5,18,0.06
2013-4-19,73.0,64.2,55.0,66.0,59.6,51.0,99,86,51,0.00,40.00,9,4,16,0.01
2013-4-20,76.0,66.2,56.0,66.0,60.1,52.0,99,83,52,0.00,40.00,9,5,17,0.00
2013-4-21,74.0,65.5,55.0,65.0,58.9,51.0,99,81,50,0.00,40.00,10,5,20,0.00
2013-4-22,77.0,65.4,55.0,66.0,56.7,43.0,99,75,49,0.00,40.00,12,5,19,0.00
2013-4-23,78.0,67.4,58.0,65.0,58.6,51.0,99,77,46,0.00,40.00,8,5,17,0.01
2013-4-24,80.0,68.9,57.0,64.0,44.2,-99.9,99,68,43,0.00,40.00,13,6,23,0.01
2013-4-25,77.0,66.6,58.0,60.0,54.9,46.0,99,69,39,0.00,40.00,19,7,33,0.00
2013-4-26,76.0,65.5,57.0,65.0,56.8,50.0,99,76,46,0.00,40.00,11,5,25,0.00
2013-4-27,76.0,67.1,58.0,64.0,55.9,48.0,98,69,44,0.00,40.00,8,5,16,0.00
2013-4-28,75.0,67.0,58.0,62.0,57.0,50.0,90,71,50,0.00,40.00,8,4,16,0.00
2013-4-29,76.0,67.4,61.0,66.0,61.3,57.0,100,83,57,0.00,40.00,9,4,17,0.01
2013-4-30,76.0,67.2,58.0,63.0,59.5,54.0,99,78,53,0.00,40.00,10,5,19,0.01
2013-5-1,76.0,65.6,57.0,64.0,56.0,45.0,99,73,45,0.00,40.00,8,6,15,0.00
2013-5-2,76.0,65.2,58.0,65.0,60.9,56.0,99,87,59,0.00,40.00,12,5,19,0.26
2013-5-3,74.0,64.7,58.0,65.0,61.2,55.0,98,89,65,0.00,40.00,11,4,16,0.16
2013-5-4,72.0,64.8,59.0,64.0,60.4,54.0,98,86,67,0.00,40.00,8,4,18,0.01
2013-5-5,70.0,64.8,61.0,65.0,61.4,57.0,98,90,65,0.00,40.00,7,3,13,0.10
2013-5-6,73.0,65.8,60.0,64.0,61.7,58.0,98,87,67,0.00,40.00,7,3,13,0.04
2013-5-7,73.0,66.8,59.0,64.0,61.5,58.0,98,84,68,0.00,40.00,7,4,13,0.00
2013-5-8,76.0,67.7,59.0,65.0,60.3,54.0,94,78,55,0.00,40.00,9,5,15,0.00
2013-5-9,76.0,67.2,60.0,65.0,61.9,59.0,97,84,63,0.00,40.00,10,3,15,0.01
2013-5-10,76.0,68.4,61.0,69.0,60.2,-99.9,94,82,61,0.00,40.00,9,4,17,0.01
2013-5-11,78.0,68.0,62.0,69.0,62.4,-99.9,96,86,66,0.00,40.00,9,4,16,0.03
2013-5-12,79.0,68.6,62.0,66.0,62.6,59.0,95,82,59,0.00,40.00,20,7,32,0.02
2013-5-13,77.0,68.2,62.0,65.0,61.9,58.0,95,81,66,0.00,40.00,12,5,21,0.00
2013-5-14,78.0,69.4,61.0,62.0,57.5,48.0,93,67,50,0.00,40.00,16,7,30,0.00
2013-5-15,79.0,67.3,59.0,65.0,59.3,52.0,91,77,48,0.00,40.00,10,5,21,0.00
2013-5-16,78.0,65.0,59.0,61.0,42.4,-99.9,90,69,42,0.00,40.00,14,6,32,0.00
2013-5-17,79.0,66.3,59.0,64.0,55.0,-99.9,92,73,47,0.00,40.00,12,6,22,0.06
2013-5-18,74.0,65.8,59.0,67.0,60.0,54.0,94,82,64,0.00,40.00,10,6,18,0.04
2013-5-19,71.0,66.0,62.0,67.0,63.3,60.0,98,92,74,0.00,40.00,10,4,18,0.22
2013-5-20,72.0,63.6,58.0,64.0,60.5,55.0,98,90,69,0.00,40.00,9,4,14,1.10
2013-5-21,74.0,65.6,57.0,65.0,61.0,54.0,96,86,71,0.00,40.00,8,4,15,0.05
2013-5-22,76.0,67.8,59.0,63.0,59.7,55.0,94,77,55,0.00,40.00,9,4,17,0.00
2013-5-23,83.0,68.2,60.0,63.0,59.1,54.0,94,75,48,0.00,40.00,15,6,24,0.00
2013-5-24,81.0,68.5,60.0,62.0,58.0,54.0,94,71,50,0.00,40.00,18,8,29,0.00
2013-5-25,75.0,66.2,59.0,64.0,60.3,55.0,94,82,63,0.00,40.00,15,6,27,0.00
2013-5-26,78.0,68.4,60.0,63.0,59.4,52.0,93,74,56,0.00,40.00,17,6,29,0.00
2013-5-27,78.0,65.9,59.0,65.0,58.9,52.0,91,79,54,0.00,40.00,13,3,20,0.94
2013-5-28,74.0,66.7,58.0,64.0,60.6,56.0,93,81,65,0.00,40.00,10,5,19,0.01
2013-5-29,74.0,67.0,60.0,68.0,62.6,55.0,97,86,65,0.00,40.00,8,5,15,0.37
2013-5-30,76.0,67.8,59.0,67.0,61.5,54.0,97,81,68,0.00,40.00,12,6,20,0.02
2013-5-31,76.0,67.3,59.0,68.0,62.5,55.0,97,85,62,0.00,40.00,6,4,15,0.09
2013-6-1,78.0,70.1,61.0,66.0,63.1,59.0,97,80,61,0.00,40.00,12,5,21,0.04
2013-6-2,78.0,69.4,61.0,66.0,62.9,59.0,97,81,62,0.00,40.00,16,5,28,0.00
2013-6-3,78.0,68.6,59.0,64.0,60.9,57.0,95,78,56,0.00,40.00,9,4,19,0.00
2013-6-4,79.0,68.0,59.0,63.0,59.8,57.0,95,76,51,0.00,40.00,14,6,26,0.00
2013-6-5,77.0,67.4,57.0,62.0,57.3,51.0,87,71,51,0.00,40.00,11,6,20,0.00
2013-6-6,78.0,68.6,59.0,61.0,56.6,48.0,88,66,47,0.00,40.00,15,7,27,0.00
2013-6-7,77.0,67.7,59.0,62.0,56.4,48.0,91,69,42,0.00,40.00,20,8,29,0.00
2013-6-8,79.0,67.7,59.0,61.0,57.4,54.0,89,71,48,0.00,40.00,11,5,20,0.00
2013-6-9,78.0,68.8,59.0,64.0,58.6,54.0,89,72,47,0.00,40.00,12,5,22,0.00
2013-6-10,79.0,69.2,59.0,62.0,59.0,55.0,90,71,49,0.00,40.00,17,6,28,0.00
2013-6-11,79.0,67.2,61.0,64.0,60.8,58.0,95,81,51,0.00,40.00,10,3,19,0.00
2013-6-12,79.0,68.4,57.0,64.0,59.1,54.0,95,74,50,0.00,40.00,14,6,30,0.00
2013-6-13,83.0,68.6,58.0,62.0,50.5,-99.9,91,68,45,0.00,40.00,15,6,30,0.00
2013-6-14,80.0,68.0,60.0,61.0,56.8,52.0,90,69,47,0.00,40.00,18,6,27,0.00
2013-6-15,78.0,68.8,59.0,63.0,55.8,50.0,84,65,44,0.00,40.00,11,6,20,0.00
2013-6-16,79.0,68.2,59.0,63.0,57.0,44.0,86,69,46,0.00,40.00,10,6,20,0.00
2013-6-17,79.0,69.5,60.0,63.0,59.0,55.0,90,71,43,0.00,40.00,12,5,22,0.00
2013-6-18,78.0,67.4,59.0,62.0,59.2,55.0,90,76,52,0.00,40.00,10,4,19,0.00
2013-6-19,79.0,69.4,62.0,62.0,57.8,52.0,89,68,51,0.00,40.00,12,6,26,0.00